createdAt,value
2016-11-26T00:00:23.048Z,1003.55
2016-11-26T00:01:03.813Z,1003.53
2016-11-26T00:01:44.592Z,1003.57
2016-11-26T00:02:25.340Z,1003.55
2016-11-26T00:03:06.107Z,1003.53
2016-11-26T00:03:46.870Z,1003.53
2016-11-26T00:04:27.644Z,1003.54
2016-11-26T00:05:08.398Z,1003.54
2016-11-26T00:05:49.156Z,1003.5
2016-11-26T00:06:29.910Z,1003.53
2016-11-26T00:07:10.646Z,1003.53
2016-11-26T00:07:51.401Z,1003.51
2016-11-26T00:08:32.166Z,1003.54
2016-11-26T00:09:12.931Z,1003.58
2016-11-26T00:09:53.678Z,1003.56
2016-11-26T00:10:34.440Z,1003.52
2016-11-26T00:11:15.189Z,1003.55
2016-11-26T00:11:55.968Z,1003.53
2016-11-26T00:12:36.757Z,1003.55
2016-11-26T00:13:17.498Z,1003.56
2016-11-26T00:13:58.266Z,1003.56
2016-11-26T00:14:39.026Z,1003.54
2016-11-26T00:15:19.813Z,1003.52
2016-11-26T00:16:00.552Z,1003.54
2016-11-26T00:16:41.317Z,1003.54
2016-11-26T00:17:22.074Z,1003.55
2016-11-26T00:18:02.794Z,1003.6
2016-11-26T00:18:43.559Z,1003.58
2016-11-26T00:19:24.308Z,1003.55
2016-11-26T00:20:05.066Z,1003.62
2016-11-26T00:20:45.815Z,1003.59
2016-11-26T00:21:26.616Z,1003.64
2016-11-26T00:22:07.365Z,1003.66
2016-11-26T00:22:48.106Z,1003.65
2016-11-26T00:23:28.896Z,1003.68
2016-11-26T00:24:09.670Z,1003.68
2016-11-26T00:24:50.452Z,1003.71
2016-11-26T00:25:31.227Z,1003.69
2016-11-26T00:26:11.983Z,1003.72
2016-11-26T00:26:52.752Z,1003.72
2016-11-26T00:27:33.517Z,1003.75
2016-11-26T00:28:14.294Z,1003.71
2016-11-26T00:28:55.012Z,1003.73
2016-11-26T00:29:35.772Z,1003.75
2016-11-26T00:30:16.537Z,1003.74
2016-11-26T00:30:57.294Z,1003.76
2016-11-26T00:31:38.044Z,1003.76
2016-11-26T00:32:18.832Z,1003.78
2016-11-26T00:32:59.588Z,1003.76
2016-11-26T00:33:40.341Z,1003.75
2016-11-26T00:34:21.115Z,1003.77
2016-11-26T00:35:01.868Z,1003.77
2016-11-26T00:35:42.643Z,1003.76
2016-11-26T00:36:23.418Z,1003.78
2016-11-26T00:37:04.143Z,1003.8
2016-11-26T00:37:44.929Z,1003.83
2016-11-26T00:38:25.691Z,1003.8
2016-11-26T00:39:06.455Z,1003.8
2016-11-26T00:39:47.225Z,1003.78
2016-11-26T00:40:27.969Z,1003.77
2016-11-26T00:41:08.721Z,1003.79
2016-11-26T00:41:49.464Z,1003.72
2016-11-26T00:42:30.237Z,1003.74
2016-11-26T00:43:10.980Z,1003.75
2016-11-26T00:43:51.750Z,1003.76
2016-11-26T00:44:32.527Z,1003.78
2016-11-26T00:45:13.270Z,1003.73
2016-11-26T00:45:54.023Z,1003.72
2016-11-26T00:46:34.792Z,1003.73
2016-11-26T00:47:15.524Z,1003.76
2016-11-26T00:47:56.259Z,1003.72
2016-11-26T00:48:37.023Z,1003.73
2016-11-26T00:49:17.778Z,1003.72
2016-11-26T00:49:58.521Z,1003.71
2016-11-26T00:50:39.313Z,1003.74
2016-11-26T00:51:20.075Z,1003.75
2016-11-26T00:52:00.819Z,1003.78
2016-11-26T00:52:41.574Z,1003.76
2016-11-26T00:53:22.310Z,1003.8
2016-11-26T00:54:03.077Z,1003.77
2016-11-26T00:54:43.826Z,1003.76
2016-11-26T00:55:24.575Z,1003.81
2016-11-26T00:56:05.322Z,1003.79
2016-11-26T00:56:46.111Z,1003.8
2016-11-26T00:57:26.862Z,1003.77
2016-11-26T00:58:07.624Z,1003.78
2016-11-26T00:58:48.409Z,1003.78
2016-11-26T00:59:29.199Z,1003.73
2016-11-26T01:00:09.935Z,1003.71
2016-11-26T01:00:50.689Z,1003.72
2016-11-26T01:01:31.454Z,1003.69
2016-11-26T01:02:12.220Z,1003.66
2016-11-26T01:02:52.992Z,1003.64
2016-11-26T01:03:33.782Z,1003.65
2016-11-26T01:04:14.544Z,1003.62
2016-11-26T01:04:55.289Z,1003.6
2016-11-26T01:05:36.045Z,1003.6
2016-11-26T01:06:16.811Z,1003.56
2016-11-26T01:06:57.576Z,1003.58
2016-11-26T01:07:38.378Z,1003.58
2016-11-26T01:08:19.128Z,1003.59
2016-11-26T01:08:59.880Z,1003.59
2016-11-26T01:09:40.629Z,1003.55
2016-11-26T01:10:21.459Z,1003.55
2016-11-26T01:11:02.195Z,1003.56
2016-11-26T01:11:42.939Z,1003.57
2016-11-26T01:12:23.727Z,1003.53
2016-11-26T01:13:04.460Z,1003.54
2016-11-26T01:13:45.215Z,1003.47
2016-11-26T01:14:25.967Z,1003.51
2016-11-26T01:15:06.740Z,1003.47
2016-11-26T01:15:47.492Z,1003.5
2016-11-26T01:16:28.263Z,1003.52
2016-11-26T01:17:09.017Z,1003.51
2016-11-26T01:17:49.757Z,1003.55
2016-11-26T01:18:30.531Z,1003.59
2016-11-26T01:19:11.316Z,1003.6
2016-11-26T01:19:52.060Z,1003.54
2016-11-26T01:20:32.815Z,1003.58
2016-11-26T01:21:13.590Z,1003.58
2016-11-26T01:21:54.346Z,1003.57
2016-11-26T01:22:35.100Z,1003.58
2016-11-26T01:23:15.866Z,1003.59
2016-11-26T01:23:56.600Z,1003.52
2016-11-26T01:24:37.357Z,1003.52
2016-11-26T01:25:18.110Z,1003.55
2016-11-26T01:25:58.876Z,1003.55
2016-11-26T01:26:39.628Z,1003.55
2016-11-26T01:27:20.378Z,1003.57
2016-11-26T01:28:01.137Z,1003.59
2016-11-26T01:28:41.891Z,1003.61
2016-11-26T01:29:22.648Z,1003.63
2016-11-26T01:30:03.396Z,1003.63
2016-11-26T01:30:44.142Z,1003.65
2016-11-26T01:31:24.887Z,1003.65
2016-11-26T01:32:05.666Z,1003.65
2016-11-26T01:32:46.424Z,1003.65
2016-11-26T01:33:27.167Z,1003.64
2016-11-26T01:34:07.950Z,1003.61
2016-11-26T01:34:48.710Z,1003.62
2016-11-26T01:35:29.465Z,1003.64
2016-11-26T01:36:10.245Z,1003.61
2016-11-26T01:36:51.012Z,1003.65
2016-11-26T01:37:31.754Z,1003.62
2016-11-26T01:38:12.519Z,1003.59
2016-11-26T01:38:53.281Z,1003.62
2016-11-26T01:39:34.031Z,1003.58
2016-11-26T01:40:14.797Z,1003.63
2016-11-26T01:40:55.536Z,1003.64
2016-11-26T01:41:36.285Z,1003.65
2016-11-26T01:42:17.036Z,1003.65
2016-11-26T01:42:57.800Z,1003.64
2016-11-26T01:43:38.583Z,1003.63
2016-11-26T01:44:19.341Z,1003.69
2016-11-26T01:45:00.118Z,1003.69
2016-11-26T01:45:40.849Z,1003.65
2016-11-26T01:46:21.605Z,1003.69
2016-11-26T01:47:02.377Z,1003.71
2016-11-26T01:47:43.135Z,1003.7
2016-11-26T01:48:23.869Z,1003.69
2016-11-26T01:49:04.654Z,1003.7
2016-11-26T01:49:45.435Z,1003.64
2016-11-26T01:50:26.150Z,1003.64
2016-11-26T01:51:06.911Z,1003.63
2016-11-26T01:51:47.676Z,1003.65
2016-11-26T01:52:28.440Z,1003.63
2016-11-26T01:53:09.184Z,1003.6
2016-11-26T01:53:49.954Z,1003.63
2016-11-26T01:54:30.699Z,1003.59
2016-11-26T01:55:12.164Z,1003.65
2016-11-26T01:55:52.941Z,1003.65
2016-11-26T01:56:33.723Z,1003.65
2016-11-26T01:57:14.502Z,1003.66
2016-11-26T01:57:55.306Z,1003.65
2016-11-26T01:58:36.054Z,1003.69
2016-11-26T01:59:16.813Z,1003.65
2016-11-26T01:59:57.573Z,1003.7
2016-11-26T02:00:38.331Z,1003.69
2016-11-26T02:01:19.051Z,1003.67
2016-11-26T02:01:59.821Z,1003.71
2016-11-26T02:02:40.592Z,1003.69
2016-11-26T02:03:21.348Z,1003.72
2016-11-26T02:04:02.103Z,1003.72
2016-11-26T02:04:42.889Z,1003.71
2016-11-26T02:05:23.648Z,1003.71
2016-11-26T02:06:04.421Z,1003.7
2016-11-26T02:06:45.206Z,1003.73
2016-11-26T02:07:25.939Z,1003.7
2016-11-26T02:08:06.697Z,1003.67
2016-11-26T02:08:47.483Z,1003.71
2016-11-26T02:09:28.243Z,1003.66
2016-11-26T02:10:08.965Z,1003.69
2016-11-26T02:10:49.726Z,1003.71
2016-11-26T02:11:30.512Z,1003.7
2016-11-26T02:12:11.235Z,1003.67
2016-11-26T02:12:52.012Z,1003.65
2016-11-26T02:13:32.755Z,1003.69
2016-11-26T02:14:13.554Z,1003.68
2016-11-26T02:14:54.304Z,1003.7
2016-11-26T02:15:35.073Z,1003.68
2016-11-26T02:16:15.809Z,1003.68
2016-11-26T02:16:56.571Z,1003.7
2016-11-26T02:17:37.401Z,1003.68
2016-11-26T02:18:18.146Z,1003.66
2016-11-26T02:18:58.909Z,1003.7
2016-11-26T02:19:39.667Z,1003.71
2016-11-26T02:20:20.414Z,1003.73
2016-11-26T02:21:01.151Z,1003.7
2016-11-26T02:21:41.908Z,1003.7
2016-11-26T02:22:22.673Z,1003.7
2016-11-26T02:23:03.412Z,1003.69
2016-11-26T02:23:44.175Z,1003.69
2016-11-26T02:24:24.947Z,1003.69
2016-11-26T02:25:05.704Z,1003.64
2016-11-26T02:25:46.455Z,1003.62
2016-11-26T02:26:27.209Z,1003.64
2016-11-26T02:27:07.964Z,1003.65
2016-11-26T02:27:48.720Z,1003.66
2016-11-26T02:28:29.502Z,1003.65
2016-11-26T02:29:10.252Z,1003.58
2016-11-26T02:29:51.019Z,1003.6
2016-11-26T02:30:31.782Z,1003.61
2016-11-26T02:31:12.543Z,1003.62
2016-11-26T02:31:53.288Z,1003.58
2016-11-26T02:32:34.040Z,1003.55
2016-11-26T02:33:14.809Z,1003.54
2016-11-26T02:33:55.539Z,1003.56
2016-11-26T02:34:36.312Z,1003.52
2016-11-26T02:35:17.065Z,1003.54
2016-11-26T02:35:57.814Z,1003.52
2016-11-26T02:36:38.569Z,1003.51
2016-11-26T02:37:19.351Z,1003.53
2016-11-26T02:38:00.116Z,1003.49
2016-11-26T02:38:40.867Z,1003.47
2016-11-26T02:39:21.628Z,1003.46
2016-11-26T02:40:02.401Z,1003.46
2016-11-26T02:40:43.161Z,1003.46
2016-11-26T02:41:23.923Z,1003.47
2016-11-26T02:42:04.679Z,1003.45
2016-11-26T02:42:45.417Z,1003.44
2016-11-26T02:43:26.183Z,1003.48
2016-11-26T02:44:06.946Z,1003.44
2016-11-26T02:44:47.695Z,1003.44
2016-11-26T02:45:28.472Z,1003.43
2016-11-26T02:46:10.082Z,1003.43
2016-11-26T02:46:49.973Z,1003.44
2016-11-26T02:47:30.713Z,1003.45
2016-11-26T02:48:11.501Z,1003.42
2016-11-26T02:48:52.257Z,1003.39
2016-11-26T02:49:33.023Z,1003.45
2016-11-26T02:50:13.809Z,1003.42
2016-11-26T02:50:54.560Z,1003.43
2016-11-26T02:51:35.323Z,1003.43
2016-11-26T02:52:16.074Z,1003.41
2016-11-26T02:52:56.854Z,1003.4
2016-11-26T02:53:37.582Z,1003.4
2016-11-26T02:54:18.343Z,1003.4
2016-11-26T02:54:59.114Z,1003.38
2016-11-26T02:55:39.869Z,1003.38
2016-11-26T02:56:20.645Z,1003.37
2016-11-26T02:57:01.393Z,1003.35
2016-11-26T02:57:42.147Z,1003.36
2016-11-26T02:58:22.900Z,1003.34
2016-11-26T02:59:03.665Z,1003.34
2016-11-26T02:59:44.410Z,1003.35
2016-11-26T03:00:25.162Z,1003.31
2016-11-26T03:01:05.896Z,1003.33
2016-11-26T03:01:46.673Z,1003.32
2016-11-26T03:02:27.453Z,1003.33
2016-11-26T03:03:08.193Z,1003.32
2016-11-26T03:03:48.947Z,1003.33
2016-11-26T03:04:29.711Z,1003.32
2016-11-26T03:05:10.462Z,1003.34
2016-11-26T03:05:51.215Z,1003.32
2016-11-26T03:06:31.970Z,1003.31
2016-11-26T03:07:12.733Z,1003.28
2016-11-26T03:07:53.482Z,1003.29
2016-11-26T03:08:34.244Z,1003.3
2016-11-26T03:09:15.017Z,1003.26
2016-11-26T03:09:56.602Z,1003.3
2016-11-26T03:10:36.523Z,1003.24
2016-11-26T03:11:17.291Z,1003.25
2016-11-26T03:11:58.031Z,1003.23
2016-11-26T03:12:38.793Z,1003.27
2016-11-26T03:13:19.590Z,1003.28
2016-11-26T03:14:00.348Z,1003.26
2016-11-26T03:14:41.114Z,1003.24
2016-11-26T03:15:21.938Z,1003.26
2016-11-26T03:16:02.694Z,1003.22
2016-11-26T03:16:43.456Z,1003.26
2016-11-26T03:17:24.221Z,1003.17
2016-11-26T03:18:04.999Z,1003.19
2016-11-26T03:18:45.784Z,1003.2
2016-11-26T03:19:26.581Z,1003.17
2016-11-26T03:20:07.331Z,1003.14
2016-11-26T03:20:48.063Z,1003.14
2016-11-26T03:21:28.863Z,1003.13
2016-11-26T03:22:09.645Z,1003.13
2016-11-26T03:22:50.407Z,1003.11
2016-11-26T03:23:31.183Z,1003.12
2016-11-26T03:24:11.933Z,1003.15
2016-11-26T03:24:52.693Z,1003.15
2016-11-26T03:25:33.434Z,1003.12
2016-11-26T03:26:14.202Z,1003.13
2016-11-26T03:26:54.963Z,1003.14
2016-11-26T03:27:35.723Z,1003.08
2016-11-26T03:28:16.511Z,1003.09
2016-11-26T03:28:57.256Z,1003.08
2016-11-26T03:29:38.016Z,1003.07
2016-11-26T03:30:19.338Z,1003.06
2016-11-26T03:31:00.100Z,1003.04
2016-11-26T03:31:40.835Z,1003.04
2016-11-26T03:32:21.594Z,1003.03
2016-11-26T03:33:02.359Z,1003.02
2016-11-26T03:33:43.090Z,1003
2016-11-26T03:34:23.872Z,1002.97
2016-11-26T03:35:04.632Z,1002.97
2016-11-26T03:35:45.386Z,1002.93
2016-11-26T03:36:26.131Z,1002.95
2016-11-26T03:37:06.892Z,1002.98
2016-11-26T03:37:47.656Z,1002.93
2016-11-26T03:38:28.400Z,1002.94
2016-11-26T03:39:09.173Z,1002.93
2016-11-26T03:39:49.922Z,1002.91
2016-11-26T03:40:30.682Z,1002.94
2016-11-26T03:41:11.459Z,1002.95
2016-11-26T03:41:52.229Z,1002.95
2016-11-26T03:42:32.978Z,1002.93
2016-11-26T03:43:13.753Z,1002.91
2016-11-26T03:43:54.533Z,1002.92
2016-11-26T03:44:35.252Z,1002.91
2016-11-26T03:45:16.008Z,1002.89
2016-11-26T03:45:56.758Z,1002.9
2016-11-26T03:46:37.508Z,1002.92
2016-11-26T03:47:18.256Z,1002.86
2016-11-26T03:47:59.038Z,1002.84
2016-11-26T03:48:39.787Z,1002.85
2016-11-26T03:49:20.537Z,1002.85
2016-11-26T03:50:01.323Z,1002.86
2016-11-26T03:50:42.103Z,1002.82
2016-11-26T03:51:22.860Z,1002.85
2016-11-26T03:52:03.618Z,1002.85
2016-11-26T03:52:44.373Z,1002.86
2016-11-26T03:53:25.121Z,1002.84
2016-11-26T03:54:05.880Z,1002.86
2016-11-26T03:54:46.632Z,1002.85
2016-11-26T03:55:27.375Z,1002.87
2016-11-26T03:56:08.151Z,1002.88
2016-11-26T03:56:48.898Z,1002.85
2016-11-26T03:57:29.638Z,1002.88
2016-11-26T03:58:10.379Z,1002.84
2016-11-26T03:58:51.888Z,1002.84
2016-11-26T03:59:32.644Z,1002.88
2016-11-26T04:00:13.379Z,1002.85
2016-11-26T04:00:54.163Z,1002.88
2016-11-26T04:01:34.888Z,1002.87
2016-11-26T04:02:15.643Z,1002.85
2016-11-26T04:02:56.426Z,1002.9
2016-11-26T04:03:37.189Z,1002.87
2016-11-26T04:04:17.939Z,1002.88
2016-11-26T04:04:58.705Z,1002.87
2016-11-26T04:05:39.505Z,1002.87
2016-11-26T04:06:20.239Z,1002.86
2016-11-26T04:07:01.023Z,1002.9
2016-11-26T04:07:41.777Z,1002.9
2016-11-26T04:08:22.521Z,1002.9
2016-11-26T04:09:03.268Z,1002.88
2016-11-26T04:09:44.031Z,1002.9
2016-11-26T04:10:24.782Z,1002.92
2016-11-26T04:11:05.553Z,1002.93
2016-11-26T04:11:46.339Z,1002.9
2016-11-26T04:12:27.100Z,1002.9
2016-11-26T04:13:07.881Z,1002.9
2016-11-26T04:13:48.654Z,1002.92
2016-11-26T04:14:29.415Z,1002.92
2016-11-26T04:15:10.130Z,1002.89
2016-11-26T04:15:50.889Z,1002.88
2016-11-26T04:16:31.647Z,1002.91
2016-11-26T04:17:12.383Z,1002.94
2016-11-26T04:17:53.155Z,1002.92
2016-11-26T04:18:33.922Z,1002.92
2016-11-26T04:19:14.663Z,1002.88
2016-11-26T04:19:55.407Z,1002.88
2016-11-26T04:20:36.176Z,1002.87
2016-11-26T04:21:16.917Z,1002.84
2016-11-26T04:21:57.654Z,1002.87
2016-11-26T04:22:38.431Z,1002.86
2016-11-26T04:23:20.049Z,1002.83
2016-11-26T04:24:00.804Z,1002.83
2016-11-26T04:24:41.554Z,1002.8
2016-11-26T04:25:22.340Z,1002.81
2016-11-26T04:26:03.081Z,1002.8
2016-11-26T04:26:43.873Z,1002.77
2016-11-26T04:27:24.639Z,1002.8
2016-11-26T04:28:05.378Z,1002.76
2016-11-26T04:28:46.144Z,1002.76
2016-11-26T04:29:26.908Z,1002.73
2016-11-26T04:30:07.665Z,1002.76
2016-11-26T04:30:48.454Z,1002.73
2016-11-26T04:31:29.242Z,1002.72
2016-11-26T04:32:09.998Z,1002.69
2016-11-26T04:32:50.765Z,1002.71
2016-11-26T04:33:31.550Z,1002.72
2016-11-26T04:34:12.300Z,1002.64
2016-11-26T04:34:53.054Z,1002.7
2016-11-26T04:35:33.794Z,1002.67
2016-11-26T04:36:14.555Z,1002.65
2016-11-26T04:36:55.290Z,1002.69
2016-11-26T04:37:36.046Z,1002.68
2016-11-26T04:38:16.834Z,1002.69
2016-11-26T04:38:57.559Z,1002.67
2016-11-26T04:39:38.329Z,1002.68
2016-11-26T04:40:19.096Z,1002.7
2016-11-26T04:40:59.839Z,1002.69
2016-11-26T04:41:40.589Z,1002.66
2016-11-26T04:42:21.392Z,1002.66
2016-11-26T04:43:02.164Z,1002.7
2016-11-26T04:43:42.919Z,1002.71
2016-11-26T04:44:23.689Z,1002.74
2016-11-26T04:45:04.456Z,1002.75
2016-11-26T04:45:45.217Z,1002.75
2016-11-26T04:46:25.995Z,1002.77
2016-11-26T04:47:06.775Z,1002.75
2016-11-26T04:47:47.507Z,1002.76
2016-11-26T04:48:28.259Z,1002.75
2016-11-26T04:49:09.040Z,1002.77
2016-11-26T04:49:49.783Z,1002.75
2016-11-26T04:50:30.545Z,1002.75
2016-11-26T04:51:11.327Z,1002.77
2016-11-26T04:51:52.060Z,1002.75
2016-11-26T04:52:32.851Z,1002.75
2016-11-26T04:53:13.584Z,1002.75
2016-11-26T04:53:54.326Z,1002.75
2016-11-26T04:54:35.076Z,1002.78
2016-11-26T04:55:15.857Z,1002.79
2016-11-26T04:55:56.600Z,1002.77
2016-11-26T04:56:37.347Z,1002.76
2016-11-26T04:57:18.115Z,1002.77
2016-11-26T04:57:58.868Z,1002.77
2016-11-26T04:58:39.627Z,1002.74
2016-11-26T04:59:20.378Z,1002.77
2016-11-26T05:00:01.146Z,1002.76
2016-11-26T05:00:41.910Z,1002.76
2016-11-26T05:01:22.668Z,1002.76
2016-11-26T05:02:03.440Z,1002.74
2016-11-26T05:02:44.169Z,1002.75
2016-11-26T05:03:25.580Z,1002.74
2016-11-26T05:04:06.362Z,1002.75
2016-11-26T05:04:47.120Z,1002.73
2016-11-26T05:05:27.863Z,1002.7
2016-11-26T05:06:08.642Z,1002.71
2016-11-26T05:06:49.392Z,1002.71
2016-11-26T05:07:30.142Z,1002.71
2016-11-26T05:08:10.920Z,1002.73
2016-11-26T05:08:51.660Z,1002.73
2016-11-26T05:09:32.420Z,1002.71
2016-11-26T05:10:13.185Z,1002.72
2016-11-26T05:10:53.951Z,1002.71
2016-11-26T05:11:34.699Z,1002.72
2016-11-26T05:12:15.449Z,1002.74
2016-11-26T05:12:56.215Z,1002.75
2016-11-26T05:13:36.989Z,1002.74
2016-11-26T05:14:17.737Z,1002.74
2016-11-26T05:14:58.466Z,1002.71
2016-11-26T05:15:39.225Z,1002.7
2016-11-26T05:16:19.968Z,1002.71
2016-11-26T05:17:00.702Z,1002.65
2016-11-26T05:17:41.472Z,1002.68
2016-11-26T05:18:22.235Z,1002.71
2016-11-26T05:19:02.988Z,1002.72
2016-11-26T05:19:43.717Z,1002.71
2016-11-26T05:20:24.494Z,1002.69
2016-11-26T05:21:05.239Z,1002.7
2016-11-26T05:21:45.977Z,1002.7
2016-11-26T05:22:26.796Z,1002.64
2016-11-26T05:23:07.544Z,1002.65
2016-11-26T05:23:48.293Z,1002.61
2016-11-26T05:24:29.041Z,1002.59
2016-11-26T05:25:09.814Z,1002.56
2016-11-26T05:25:50.543Z,1002.59
2016-11-26T05:26:31.308Z,1002.58
2016-11-26T05:27:12.077Z,1002.55
2016-11-26T05:27:52.791Z,1002.58
2016-11-26T05:28:33.551Z,1002.52
2016-11-26T05:29:14.312Z,1002.53
2016-11-26T05:29:55.073Z,1002.55
2016-11-26T05:30:35.829Z,1002.54
2016-11-26T05:31:16.595Z,1002.56
2016-11-26T05:31:57.340Z,1002.53
2016-11-26T05:32:38.098Z,1002.55
2016-11-26T05:33:18.864Z,1002.52
2016-11-26T05:33:59.609Z,1002.53
2016-11-26T05:34:40.361Z,1002.51
2016-11-26T05:35:21.122Z,1002.5
2016-11-26T05:36:01.872Z,1002.5
2016-11-26T05:36:42.607Z,1002.54
2016-11-26T05:37:23.380Z,1002.5
2016-11-26T05:38:04.165Z,1002.52
2016-11-26T05:38:44.909Z,1002.52
2016-11-26T05:39:25.665Z,1002.52
2016-11-26T05:40:06.435Z,1002.51
2016-11-26T05:40:47.205Z,1002.5
2016-11-26T05:41:27.947Z,1002.54
2016-11-26T05:42:08.719Z,1002.54
2016-11-26T05:42:49.485Z,1002.57
2016-11-26T05:43:30.232Z,1002.57
2016-11-26T05:44:11.017Z,1002.56
2016-11-26T05:44:51.776Z,1002.54
2016-11-26T05:45:32.538Z,1002.51
2016-11-26T05:46:13.302Z,1002.52
2016-11-26T05:46:54.064Z,1002.52
2016-11-26T05:47:34.826Z,1002.53
2016-11-26T05:48:15.592Z,1002.5
2016-11-26T05:48:56.364Z,1002.51
2016-11-26T05:49:37.079Z,1002.5
2016-11-26T05:50:17.854Z,1002.5
2016-11-26T05:50:58.624Z,1002.5
2016-11-26T05:51:39.371Z,1002.48
2016-11-26T05:52:20.134Z,1002.5
2016-11-26T05:53:00.898Z,1002.54
2016-11-26T05:53:41.660Z,1002.56
2016-11-26T05:54:22.416Z,1002.59
2016-11-26T05:55:03.191Z,1002.56
2016-11-26T05:55:43.941Z,1002.59
2016-11-26T05:56:24.702Z,1002.53
2016-11-26T05:57:05.472Z,1002.58
2016-11-26T05:57:46.281Z,1002.59
2016-11-26T05:58:27.032Z,1002.57
2016-11-26T05:59:07.806Z,1002.59
2016-11-26T05:59:48.573Z,1002.56
2016-11-26T06:00:29.314Z,1002.56
2016-11-26T06:01:10.080Z,1002.55
2016-11-26T06:01:50.848Z,1002.53
2016-11-26T06:02:31.602Z,1002.59
2016-11-26T06:03:12.350Z,1002.58
2016-11-26T06:03:53.132Z,1002.54
2016-11-26T06:04:33.886Z,1002.56
2016-11-26T06:05:14.626Z,1002.58
2016-11-26T06:05:55.416Z,1002.57
2016-11-26T06:06:36.173Z,1002.55
2016-11-26T06:07:16.949Z,1002.6
2016-11-26T06:07:57.741Z,1002.58
2016-11-26T06:08:38.517Z,1002.6
2016-11-26T06:09:19.250Z,1002.61
2016-11-26T06:10:00.020Z,1002.55
2016-11-26T06:10:40.786Z,1002.54
2016-11-26T06:11:21.518Z,1002.52
2016-11-26T06:12:02.293Z,1002.56
2016-11-26T06:12:43.080Z,1002.55
2016-11-26T06:13:23.858Z,1002.56
2016-11-26T06:14:04.602Z,1002.55
2016-11-26T06:14:45.376Z,1002.56
2016-11-26T06:15:26.121Z,1002.56
2016-11-26T06:16:06.883Z,1002.57
2016-11-26T06:16:47.675Z,1002.6
2016-11-26T06:17:28.427Z,1002.55
2016-11-26T06:18:09.219Z,1002.56
2016-11-26T06:18:50.002Z,1002.56
2016-11-26T06:19:30.765Z,1002.59
2016-11-26T06:20:11.492Z,1002.57
2016-11-26T06:20:52.252Z,1002.59
2016-11-26T06:21:33.007Z,1002.61
2016-11-26T06:22:13.749Z,1002.6
2016-11-26T06:22:54.513Z,1002.62
2016-11-26T06:23:35.253Z,1002.63
2016-11-26T06:24:16.081Z,1002.63
2016-11-26T06:24:56.826Z,1002.6
2016-11-26T06:25:37.598Z,1002.6
2016-11-26T06:26:18.381Z,1002.61
2016-11-26T06:26:59.143Z,1002.59
2016-11-26T06:27:39.917Z,1002.61
2016-11-26T06:28:20.675Z,1002.6
2016-11-26T06:29:01.429Z,1002.61
2016-11-26T06:29:42.213Z,1002.63
2016-11-26T06:30:22.968Z,1002.62
2016-11-26T06:31:03.698Z,1002.62
2016-11-26T06:31:44.467Z,1002.66
2016-11-26T06:32:25.239Z,1002.69
2016-11-26T06:33:05.981Z,1002.67
2016-11-26T06:33:46.755Z,1002.7
2016-11-26T06:34:27.500Z,1002.7
2016-11-26T06:35:08.249Z,1002.67
2016-11-26T06:35:49.028Z,1002.68
2016-11-26T06:36:29.839Z,1002.68
2016-11-26T06:37:10.592Z,1002.69
2016-11-26T06:37:51.362Z,1002.68
2016-11-26T06:38:32.146Z,1002.63
2016-11-26T06:39:12.910Z,1002.64
2016-11-26T06:39:53.706Z,1002.65
2016-11-26T06:40:34.461Z,1002.62
2016-11-26T06:41:15.235Z,1002.61
2016-11-26T06:41:55.996Z,1002.6
2016-11-26T06:42:36.759Z,1002.61
2016-11-26T06:43:17.523Z,1002.62
2016-11-26T06:43:58.266Z,1002.61
2016-11-26T06:44:39.068Z,1002.62
2016-11-26T06:45:19.825Z,1002.62
2016-11-26T06:46:00.597Z,1002.65
2016-11-26T06:46:41.397Z,1002.65
2016-11-26T06:47:22.133Z,1002.66
2016-11-26T06:48:02.906Z,1002.64
2016-11-26T06:48:43.673Z,1002.63
2016-11-26T06:49:24.403Z,1002.65
2016-11-26T06:50:05.189Z,1002.62
2016-11-26T06:50:45.941Z,1002.62
2016-11-26T06:51:26.703Z,1002.59
2016-11-26T06:52:07.487Z,1002.61
2016-11-26T06:52:48.265Z,1002.6
2016-11-26T06:53:29.035Z,1002.59
2016-11-26T06:54:09.785Z,1002.58
2016-11-26T06:54:50.562Z,1002.6
2016-11-26T06:55:31.285Z,1002.61
2016-11-26T06:56:12.041Z,1002.65
2016-11-26T06:56:52.804Z,1002.62
2016-11-26T06:57:33.587Z,1002.64
2016-11-26T06:58:14.331Z,1002.65
2016-11-26T06:58:55.094Z,1002.66
2016-11-26T06:59:35.873Z,1002.68
2016-11-26T07:00:16.604Z,1002.69
2016-11-26T07:00:57.353Z,1002.67
2016-11-26T07:01:38.108Z,1002.65
2016-11-26T07:02:18.867Z,1002.66
2016-11-26T07:02:59.611Z,1002.68
2016-11-26T07:03:40.381Z,1002.65
2016-11-26T07:04:21.125Z,1002.64
2016-11-26T07:05:01.879Z,1002.65
2016-11-26T07:05:42.647Z,1002.64
2016-11-26T07:06:23.401Z,1002.66
2016-11-26T07:07:04.152Z,1002.63
2016-11-26T07:07:44.905Z,1002.65
2016-11-26T07:08:25.678Z,1002.62
2016-11-26T07:09:06.404Z,1002.59
2016-11-26T07:09:47.165Z,1002.64
2016-11-26T07:10:27.899Z,1002.63
2016-11-26T07:11:08.655Z,1002.63
2016-11-26T07:11:49.450Z,1002.63
2016-11-26T07:12:30.211Z,1002.59
2016-11-26T07:13:10.982Z,1002.62
2016-11-26T07:13:51.751Z,1002.58
2016-11-26T07:14:32.553Z,1002.57
2016-11-26T07:15:13.308Z,1002.56
2016-11-26T07:15:54.042Z,1002.55
2016-11-26T07:16:34.832Z,1002.58
2016-11-26T07:17:15.586Z,1002.52
2016-11-26T07:17:56.337Z,1002.5
2016-11-26T07:18:37.098Z,1002.55
2016-11-26T07:19:17.879Z,1002.52
2016-11-26T07:19:58.624Z,1002.55
2016-11-26T07:20:39.387Z,1002.56
2016-11-26T07:21:20.165Z,1002.56
2016-11-26T07:22:00.894Z,1002.51
2016-11-26T07:22:41.664Z,1002.51
2016-11-26T07:23:22.428Z,1002.5
2016-11-26T07:24:03.187Z,1002.5
2016-11-26T07:24:43.937Z,1002.46
2016-11-26T07:25:24.717Z,1002.46
2016-11-26T07:26:05.447Z,1002.46
2016-11-26T07:26:46.193Z,1002.44
2016-11-26T07:27:26.972Z,1002.48
2016-11-26T07:28:07.718Z,1002.47
2016-11-26T07:28:48.499Z,1002.48
2016-11-26T07:29:29.281Z,1002.46
2016-11-26T07:30:10.039Z,1002.43
2016-11-26T07:30:50.794Z,1002.4
2016-11-26T07:31:31.571Z,1002.42
2016-11-26T07:32:12.358Z,1002.42
2016-11-26T07:32:53.074Z,1002.41
2016-11-26T07:33:33.840Z,1002.42
2016-11-26T07:34:14.614Z,1002.38
2016-11-26T07:34:55.363Z,1002.38
2016-11-26T07:35:36.104Z,1002.4
2016-11-26T07:36:16.879Z,1002.42
2016-11-26T07:36:58.241Z,1002.42
2016-11-26T07:37:38.390Z,1002.41
2016-11-26T07:38:19.163Z,1002.43
2016-11-26T07:38:59.918Z,1002.44
2016-11-26T07:39:40.660Z,1002.43
2016-11-26T07:40:21.417Z,1002.49
2016-11-26T07:41:02.170Z,1002.5
2016-11-26T07:41:42.907Z,1002.45
2016-11-26T07:42:23.689Z,1002.44
2016-11-26T07:43:04.449Z,1002.46
2016-11-26T07:43:45.189Z,1002.48
2016-11-26T07:44:25.966Z,1002.48
2016-11-26T07:45:06.735Z,1002.54
2016-11-26T07:45:47.495Z,1002.51
2016-11-26T07:46:28.226Z,1002.49
2016-11-26T07:47:09.010Z,1002.46
2016-11-26T07:47:49.751Z,1002.48
2016-11-26T07:48:30.494Z,1002.43
2016-11-26T07:49:11.298Z,1002.46
2016-11-26T07:49:52.037Z,1002.4
2016-11-26T07:50:32.799Z,1002.41
2016-11-26T07:51:13.561Z,1002.42
2016-11-26T07:51:54.325Z,1002.39
2016-11-26T07:52:35.079Z,1002.38
2016-11-26T07:53:15.821Z,1002.37
2016-11-26T07:53:56.595Z,1002.37
2016-11-26T07:54:37.339Z,1002.4
2016-11-26T07:55:18.118Z,1002.42
2016-11-26T07:55:58.874Z,1002.4
2016-11-26T07:56:39.639Z,1002.4
2016-11-26T07:57:20.405Z,1002.37
2016-11-26T07:58:01.219Z,1002.36
2016-11-26T07:58:41.967Z,1002.34
2016-11-26T07:59:22.718Z,1002.32
2016-11-26T08:00:03.507Z,1002.28
2016-11-26T08:00:44.283Z,1002.34
2016-11-26T08:01:25.865Z,1002.36
2016-11-26T08:02:06.640Z,1002.33
2016-11-26T08:02:47.410Z,1002.3
2016-11-26T08:03:28.181Z,1002.3
2016-11-26T08:04:08.954Z,1002.24
2016-11-26T08:04:49.738Z,1002.29
2016-11-26T08:05:30.451Z,1002.27
2016-11-26T08:06:11.219Z,1002.28
2016-11-26T08:06:51.990Z,1002.26
2016-11-26T08:07:32.732Z,1002.3
2016-11-26T08:08:13.483Z,1002.3
2016-11-26T08:08:54.279Z,1002.25
2016-11-26T08:09:35.030Z,1002.28
2016-11-26T08:10:15.773Z,1002.22
2016-11-26T08:10:56.568Z,1002.22
2016-11-26T08:11:37.308Z,1002.25
2016-11-26T08:12:18.058Z,1002.2
2016-11-26T08:12:58.842Z,1002.23
2016-11-26T08:13:39.613Z,1002.22
2016-11-26T08:14:21.027Z,1002.21
2016-11-26T08:15:01.777Z,1002.21